createdAt,value
2023-02-19T00:00:44.417Z,7.25
2023-02-19T00:03:16.948Z,6.47
2023-02-19T00:05:49.553Z,7.38
2023-02-19T00:08:22.179Z,7.38
2023-02-19T00:10:54.731Z,6.95
2023-02-19T00:13:27.356Z,6.20
2023-02-19T00:16:07.356Z,6.47
2023-02-19T00:18:40.405Z,7.72
2023-02-19T00:21:13.727Z,6.93
2023-02-19T00:23:55.583Z,7.97
2023-02-19T00:26:29.344Z,6.43
2023-02-19T00:29:02.467Z,6.97
2023-02-19T00:31:36.366Z,6.85
2023-02-19T00:34:11.058Z,5.55
2023-02-19T00:36:44.223Z,6.13
2023-02-19T00:39:18.506Z,6.53
2023-02-19T00:41:51.214Z,5.72
2023-02-19T00:44:23.786Z,6.18
2023-02-19T00:46:56.301Z,5.93
2023-02-19T00:49:28.841Z,5.50
2023-02-19T00:52:01.508Z,5.50
2023-02-19T00:54:34.074Z,6.00
2023-02-19T00:57:06.585Z,4.70
2023-02-19T00:59:39.143Z,4.95
2023-02-19T01:02:11.686Z,5.00
2023-02-19T01:04:44.284Z,4.50
2023-02-19T01:07:16.840Z,4.53
2023-02-19T01:09:49.429Z,3.80
2023-02-19T01:12:24.279Z,4.10
2023-02-19T01:14:57.640Z,3.88
2023-02-19T01:17:30.206Z,3.55
2023-02-19T01:20:02.803Z,4.53
2023-02-19T01:22:35.319Z,4.20
2023-02-19T01:25:08.104Z,3.95
2023-02-19T01:27:40.693Z,3.00
2023-02-19T01:30:13.721Z,3.33
2023-02-19T01:32:46.228Z,3.88
2023-02-19T01:35:18.800Z,3.58
2023-02-19T01:37:51.353Z,3.63
2023-02-19T01:40:24.206Z,4.95
2023-02-19T01:42:56.773Z,3.60
2023-02-19T01:45:38.231Z,3.95
2023-02-19T01:48:38.015Z,3.60
2023-02-19T01:51:18.830Z,3.00
2023-02-19T01:54:00.306Z,3.03
2023-02-19T01:56:38.301Z,3.83
2023-02-19T01:59:12.075Z,3.50
2023-02-19T02:01:45.686Z,3.00
2023-02-19T02:04:19.342Z,3.20
2023-02-19T02:06:56.414Z,2.50
2023-02-19T02:09:50.046Z,3.25
2023-02-19T02:12:22.603Z,3.22
2023-02-19T02:14:55.112Z,2.92
2023-02-19T02:17:55.354Z,4.20
2023-02-19T02:21:15.867Z,3.53
2023-02-19T02:24:21.665Z,3.47
2023-02-19T02:27:16.096Z,3.13
2023-02-19T02:30:35.362Z,2.83
2023-02-19T02:33:26.535Z,2.60
2023-02-19T02:36:27.053Z,2.78
2023-02-19T02:39:05.092Z,3.17
2023-02-19T02:41:45.088Z,2.70
2023-02-19T02:44:17.645Z,3.38
2023-02-19T02:46:50.257Z,2.80
2023-02-19T02:49:24.643Z,2.88
2023-02-19T02:52:19.812Z,3.90
2023-02-19T02:55:04.593Z,2.58
2023-02-19T02:57:37.159Z,2.67
2023-02-19T03:00:10.561Z,2.47
2023-02-19T03:02:44.246Z,2.45
2023-02-19T03:05:42.594Z,2.70
2023-02-19T03:08:47.782Z,2.85
2023-02-19T03:11:39.600Z,2.35
2023-02-19T03:15:07.241Z,2.53
2023-02-19T03:18:11.824Z,2.42
2023-02-19T03:20:50.725Z,2.78
2023-02-19T03:23:49.061Z,1.77
2023-02-19T03:26:24.610Z,1.80
2023-02-19T03:29:18.911Z,2.60
2023-02-19T03:32:01.379Z,2.25
2023-02-19T03:35:03.485Z,3.25
2023-02-19T03:40:15.483Z,2.15
2023-02-19T03:43:19.601Z,1.80
2023-02-19T03:46:23.444Z,2.40
2023-02-19T03:49:09.929Z,1.40
2023-02-19T03:52:02.759Z,1.70
2023-02-19T03:54:54.718Z,2.08
2023-02-19T03:57:54.349Z,2.78
2023-02-19T04:00:41.588Z,1.75
2023-02-19T04:03:48.041Z,2.63
2023-02-19T04:06:30.294Z,2.13
2023-02-19T04:09:09.246Z,1.83
2023-02-19T04:11:42.789Z,1.95
2023-02-19T04:14:23.611Z,1.55
2023-02-19T04:17:05.402Z,2.28
2023-02-19T04:19:42.137Z,1.85
2023-02-19T04:22:17.652Z,1.60
2023-02-19T04:24:54.079Z,1.75
2023-02-19T04:27:26.933Z,1.45
2023-02-19T04:29:59.970Z,1.70
2023-02-19T04:32:32.764Z,1.88
2023-02-19T04:35:05.767Z,1.90
2023-02-19T04:37:38.334Z,1.70
2023-02-19T04:40:11.504Z,1.73
2023-02-19T04:42:44.132Z,2.05
2023-02-19T04:45:16.820Z,1.85
2023-02-19T04:47:49.485Z,2.35
2023-02-19T04:50:23.221Z,2.15
2023-02-19T04:52:55.858Z,2.13
2023-02-19T04:55:28.656Z,1.88
2023-02-19T04:58:01.241Z,2.17
2023-02-19T05:00:34.116Z,2.35
2023-02-19T05:03:06.795Z,1.50
2023-02-19T05:05:39.329Z,1.98
2023-02-19T05:08:11.838Z,1.77
2023-02-19T05:10:44.376Z,1.85
2023-02-19T05:13:16.981Z,1.90
2023-02-19T05:16:04.847Z,1.98
2023-02-19T05:18:37.475Z,1.98
2023-02-19T05:21:12.118Z,2.00
2023-02-19T05:23:44.855Z,2.28
2023-02-19T05:26:21.598Z,1.95
2023-02-19T05:28:54.617Z,2.40
2023-02-19T05:31:27.349Z,1.88
2023-02-19T05:33:59.852Z,2.30
2023-02-19T05:36:32.644Z,1.92
2023-02-19T05:39:06.293Z,2.10
2023-02-19T05:41:39.093Z,2.22
2023-02-19T05:44:11.708Z,2.33
2023-02-19T05:46:44.284Z,2.28
2023-02-19T05:49:17.007Z,2.00
2023-02-19T05:51:52.522Z,2.47
2023-02-19T05:54:25.079Z,1.80
2023-02-19T05:56:58.369Z,2.05
2023-02-19T05:59:31.659Z,1.95
2023-02-19T06:02:04.218Z,2.03
2023-02-19T06:04:36.816Z,1.58
2023-02-19T06:07:09.479Z,1.80
2023-02-19T06:09:42.098Z,1.95
2023-02-19T06:12:14.603Z,1.77
2023-02-19T06:14:48.884Z,2.30
2023-02-19T06:17:21.459Z,1.55
2023-02-19T06:19:53.941Z,1.70
2023-02-19T06:22:27.133Z,1.52
2023-02-19T06:24:59.703Z,2.05
2023-02-19T06:27:32.265Z,1.83
2023-02-19T06:30:05.318Z,1.73
2023-02-19T06:32:38.100Z,2.45
2023-02-19T06:35:10.627Z,2.22
2023-02-19T06:37:46.188Z,1.48
2023-02-19T06:40:19.105Z,1.23
2023-02-19T06:42:51.728Z,3.00
2023-02-19T06:45:24.341Z,2.42
2023-02-19T06:47:56.893Z,2.10
2023-02-19T06:50:29.413Z,1.80
2023-02-19T06:53:03.140Z,2.20
2023-02-19T06:55:35.697Z,2.10
2023-02-19T06:58:08.242Z,2.28
2023-02-19T07:00:40.797Z,2.17
2023-02-19T07:03:13.363Z,3.25
2023-02-19T07:05:46.071Z,2.13
2023-02-19T07:08:18.760Z,2.38
2023-02-19T07:10:57.190Z,2.25
2023-02-19T07:13:29.787Z,2.28
2023-02-19T07:16:07.931Z,2.92
2023-02-19T07:18:40.948Z,1.85
2023-02-19T07:21:15.469Z,2.10
2023-02-19T07:23:48.056Z,2.25
2023-02-19T07:26:22.273Z,2.47
2023-02-19T07:28:54.844Z,3.20
2023-02-19T07:31:28.733Z,2.38
2023-02-19T07:34:01.363Z,3.55
2023-02-19T07:36:33.889Z,2.75
2023-02-19T07:39:08.022Z,2.30
2023-02-19T07:41:41.785Z,3.05
2023-02-19T07:44:16.422Z,2.33
2023-02-19T07:46:48.995Z,2.78
2023-02-19T07:49:21.584Z,2.47
2023-02-19T07:51:54.208Z,2.80
2023-02-19T07:54:26.840Z,2.78
2023-02-19T07:56:59.685Z,3.10
2023-02-19T07:59:32.358Z,3.00
2023-02-19T08:02:23.843Z,2.78
2023-02-19T08:04:56.392Z,2.53
2023-02-19T08:07:34.606Z,3.00
2023-02-19T08:10:26.379Z,2.90
2023-02-19T08:13:19.716Z,3.13
2023-02-19T08:16:18.343Z,3.72
2023-02-19T08:18:52.906Z,3.30
2023-02-19T08:21:25.604Z,3.47
2023-02-19T08:23:58.305Z,3.28
2023-02-19T08:26:30.902Z,3.45
2023-02-19T08:29:05.446Z,3.22
2023-02-19T08:31:38.356Z,3.45
2023-02-19T08:34:10.965Z,3.20
2023-02-19T08:36:44.147Z,3.45
2023-02-19T08:39:16.759Z,3.28
2023-02-19T08:41:49.603Z,3.17
2023-02-19T08:44:22.155Z,3.08
2023-02-19T08:46:54.660Z,3.00
2023-02-19T08:49:27.810Z,2.92
2023-02-19T08:52:00.433Z,3.17
2023-02-19T08:54:33.069Z,3.20
2023-02-19T08:57:06.241Z,3.80
2023-02-19T08:59:38.764Z,4.10
2023-02-19T09:02:12.673Z,4.22
2023-02-19T09:04:45.181Z,3.78
2023-02-19T09:07:18.239Z,3.72
2023-02-19T09:09:50.734Z,3.22
2023-02-19T09:12:23.343Z,3.60
2023-02-19T09:14:55.958Z,3.00
2023-02-19T09:17:28.541Z,2.90
2023-02-19T09:20:01.204Z,2.50
2023-02-19T09:22:33.729Z,3.20
2023-02-19T09:25:06.390Z,2.50
2023-02-19T09:27:38.987Z,2.65
2023-02-19T09:30:11.730Z,2.72
2023-02-19T09:32:44.272Z,2.65
2023-02-19T09:35:16.873Z,2.10
2023-02-19T09:37:49.396Z,2.85
2023-02-19T09:40:22.474Z,3.33
2023-02-19T09:42:55.277Z,3.45
2023-02-19T09:45:27.947Z,3.80
2023-02-19T09:48:00.571Z,4.03
2023-02-19T09:50:45.566Z,3.55
2023-02-19T09:53:27.247Z,4.00
2023-02-19T09:56:01.406Z,3.72
2023-02-19T09:58:57.084Z,3.97
2023-02-19T10:01:38.057Z,4.57
2023-02-19T10:04:11.437Z,4.00
2023-02-19T10:06:44.508Z,4.30
2023-02-19T10:09:26.952Z,4.65
2023-02-19T10:14:40.651Z,4.28
2023-02-19T10:17:29.543Z,4.78
2023-02-19T10:20:05.356Z,4.72
2023-02-19T10:22:38.269Z,4.75
2023-02-19T10:25:17.492Z,4.50
2023-02-19T10:27:50.284Z,5.30
2023-02-19T10:30:28.515Z,6.03
2023-02-19T10:33:12.423Z,5.50
2023-02-19T10:36:21.764Z,6.20
2023-02-19T10:38:55.220Z,5.97
2023-02-19T10:41:28.905Z,5.50
2023-02-19T10:44:21.511Z,5.57
2023-02-19T10:46:59.870Z,5.50
2023-02-19T10:49:40.887Z,5.88
2023-02-19T10:52:21.022Z,5.93
2023-02-19T10:55:17.442Z,5.53
2023-02-19T10:57:50.629Z,5.28
2023-02-19T11:00:30.599Z,4.78
2023-02-19T11:03:20.540Z,5.03
2023-02-19T11:06:04.772Z,4.35
2023-02-19T11:08:59.051Z,4.50
2023-02-19T11:11:40.389Z,5.68
2023-02-19T11:14:22.648Z,4.05
2023-02-19T11:16:59.328Z,3.85
2023-02-19T11:19:40.289Z,3.28
2023-02-19T11:22:35.432Z,3.15
2023-02-19T11:25:21.913Z,3.08
2023-02-19T11:28:07.505Z,2.28
2023-02-19T11:30:45.692Z,2.30
2023-02-19T11:33:22.170Z,2.58
2023-02-19T11:36:21.526Z,2.65
2023-02-19T11:38:56.588Z,2.38
2023-02-19T11:42:20.252Z,2.60
2023-02-19T11:45:46.178Z,1.77
2023-02-19T11:48:55.946Z,2.22
2023-02-19T11:51:35.888Z,1.55
2023-02-19T11:54:26.500Z,1.60
2023-02-19T11:57:31.473Z,1.52
2023-02-19T12:00:17.886Z,1.75
2023-02-19T12:03:35.572Z,1.73
2023-02-19T12:06:55.516Z,1.60
2023-02-19T12:10:28.316Z,1.90
2023-02-19T12:13:54.987Z,1.20
2023-02-19T12:16:40.794Z,1.55
2023-02-19T12:19:34.474Z,1.23
2023-02-19T12:22:29.567Z,1.50
2023-02-19T12:25:28.992Z,1.13
2023-02-19T12:28:10.536Z,1.60
2023-02-19T12:31:09.052Z,1.40
2023-02-19T12:34:34.819Z,1.30
2023-02-19T12:37:39.771Z,1.27
2023-02-19T12:40:49.740Z,1.10
2023-02-19T12:43:24.164Z,1.08
2023-02-19T12:46:08.238Z,1.45
2023-02-19T12:48:53.873Z,1.20
2023-02-19T12:51:34.104Z,1.20
2023-02-19T12:54:30.764Z,1.60
2023-02-19T12:57:13.572Z,1.38
2023-02-19T13:00:23.068Z,1.17
2023-02-19T13:03:09.639Z,1.15
2023-02-19T13:06:01.749Z,1.00
2023-02-19T13:09:07.486Z,1.55
2023-02-19T13:12:08.716Z,1.27
2023-02-19T13:14:52.780Z,1.98
2023-02-19T13:17:38.504Z,0.85
2023-02-19T13:20:25.119Z,1.02
2023-02-19T13:23:32.011Z,1.15
2023-02-19T13:26:41.218Z,0.90
2023-02-19T13:29:53.354Z,0.90
2023-02-19T13:33:09.879Z,0.82
2023-02-19T13:36:08.247Z,0.80
2023-02-19T13:38:45.990Z,1.10
2023-02-19T13:41:41.971Z,0.90
2023-02-19T13:44:27.037Z,1.08
2023-02-19T13:47:00.887Z,1.20
2023-02-19T13:49:36.203Z,1.23
2023-02-19T13:52:30.485Z,0.80
2023-02-19T13:55:44.177Z,0.85
2023-02-19T13:58:38.910Z,0.70
2023-02-19T14:01:14.097Z,0.50
2023-02-19T14:04:07.179Z,0.90
2023-02-19T14:07:04.691Z,1.00
2023-02-19T14:09:37.275Z,0.95
2023-02-19T14:12:10.134Z,0.80
2023-02-19T14:14:48.889Z,0.80
2023-02-19T14:17:42.504Z,1.10
2023-02-19T14:20:14.911Z,1.30
2023-02-19T14:22:47.649Z,1.23
2023-02-19T14:25:45.779Z,1.33
2023-02-19T14:28:30.641Z,1.40
2023-02-19T14:31:11.871Z,1.10
2023-02-19T14:33:49.695Z,1.30
2023-02-19T14:36:48.690Z,1.27
2023-02-19T14:39:35.119Z,1.10
2023-02-19T14:42:32.418Z,1.40
2023-02-19T14:45:07.978Z,2.22
2023-02-19T14:47:41.756Z,1.90
2023-02-19T14:50:29.299Z,1.17
2023-02-19T14:53:07.298Z,2.40
2023-02-19T14:55:43.820Z,1.45
2023-02-19T14:58:28.674Z,1.30
2023-02-19T15:01:01.311Z,1.25
2023-02-19T15:03:37.552Z,1.50
2023-02-19T15:06:19.476Z,1.55
2023-02-19T15:09:00.179Z,1.92
2023-02-19T15:11:35.298Z,1.70
2023-02-19T15:14:20.506Z,2.28
2023-02-19T15:17:01.195Z,1.40
2023-02-19T15:19:39.507Z,1.52
2023-02-19T15:22:24.577Z,1.60
2023-02-19T15:25:00.459Z,2.00
2023-02-19T15:27:34.346Z,1.48
2023-02-19T15:30:27.463Z,1.40
2023-02-19T15:33:00.698Z,1.70
2023-02-19T15:35:33.469Z,1.40
2023-02-19T15:38:11.436Z,1.52
2023-02-19T15:40:49.060Z,1.90
2023-02-19T15:43:29.709Z,1.23
2023-02-19T15:46:18.104Z,1.00
2023-02-19T15:49:07.910Z,0.98
2023-02-19T15:51:59.536Z,0.98
2023-02-19T15:54:42.235Z,0.82
2023-02-19T15:57:25.299Z,0.70
2023-02-19T16:00:26.722Z,0.40
2023-02-19T16:02:59.644Z,0.65
2023-02-19T16:05:39.293Z,1.02
2023-02-19T16:08:11.958Z,0.93
2023-02-19T16:11:22.927Z,0.90
2023-02-19T16:14:34.226Z,1.30
2023-02-19T16:17:09.801Z,1.40
2023-02-19T16:19:56.738Z,1.17
2023-02-19T16:22:41.847Z,0.80
2023-02-19T16:25:36.040Z,0.77
2023-02-19T16:28:18.627Z,1.00
2023-02-19T16:33:34.816Z,0.95
2023-02-19T16:36:33.437Z,0.80
2023-02-19T16:39:09.304Z,0.98
2023-02-19T16:41:47.829Z,0.80
2023-02-19T16:44:30.892Z,0.70
2023-02-19T16:47:15.221Z,1.13
2023-02-19T16:49:47.820Z,0.90
2023-02-19T16:52:20.383Z,1.00
2023-02-19T16:54:53.250Z,1.23
2023-02-19T16:57:25.817Z,0.93
2023-02-19T16:59:58.394Z,1.00
2023-02-19T17:02:33.336Z,0.93
2023-02-19T17:05:05.946Z,1.10
2023-02-19T17:07:38.479Z,1.05
2023-02-19T17:10:17.812Z,1.00
2023-02-19T17:12:55.537Z,1.15
2023-02-19T17:15:28.140Z,1.20
2023-02-19T17:18:00.626Z,0.63
2023-02-19T17:20:36.207Z,0.77
2023-02-19T17:23:08.753Z,0.98
2023-02-19T17:25:41.344Z,0.60
2023-02-19T17:28:13.895Z,0.60
2023-02-19T17:30:46.451Z,0.80
2023-02-19T17:33:19.005Z,0.63
2023-02-19T17:35:51.595Z,0.70
2023-02-19T17:38:24.146Z,0.60
2023-02-19T17:40:56.720Z,0.80
2023-02-19T17:43:29.257Z,1.08
2023-02-19T17:46:01.979Z,0.90
2023-02-19T17:48:34.560Z,0.90
2023-02-19T17:51:07.565Z,0.70
2023-02-19T17:53:40.290Z,0.50
2023-02-19T17:56:23.577Z,0.77
2023-02-19T17:58:58.412Z,0.88
2023-02-19T18:01:31.036Z,0.75
2023-02-19T18:04:04.131Z,0.60
2023-02-19T18:06:36.722Z,0.75
2023-02-19T18:09:11.484Z,0.77
2023-02-19T18:11:46.469Z,0.88
2023-02-19T18:14:19.147Z,0.63
2023-02-19T18:16:51.883Z,0.90
2023-02-19T18:19:26.065Z,0.77
2023-02-19T18:21:58.601Z,0.70
2023-02-19T18:24:31.154Z,0.70
2023-02-19T18:27:04.310Z,0.55
2023-02-19T18:29:36.947Z,0.73
2023-02-19T18:32:09.817Z,0.70
2023-02-19T18:34:42.436Z,0.60
2023-02-19T18:37:14.976Z,0.65
2023-02-19T18:39:47.904Z,0.63
2023-02-19T18:42:22.544Z,0.80
2023-02-19T18:44:56.373Z,0.90
2023-02-19T18:47:28.999Z,1.25
2023-02-19T18:50:01.719Z,1.02
2023-02-19T18:52:34.333Z,0.90
2023-02-19T18:55:07.737Z,1.08
2023-02-19T18:57:40.377Z,0.68
2023-02-19T19:00:20.745Z,0.60
2023-02-19T19:03:00.140Z,1.17
2023-02-19T19:05:32.729Z,0.70
2023-02-19T19:08:05.337Z,0.63
2023-02-19T19:10:37.893Z,0.75
2023-02-19T19:13:10.584Z,1.27
2023-02-19T19:15:45.012Z,0.93
2023-02-19T19:18:18.316Z,1.10
2023-02-19T19:20:50.973Z,0.88
2023-02-19T19:23:23.771Z,1.33
2023-02-19T19:25:56.741Z,1.20
2023-02-19T19:28:31.249Z,1.40
2023-02-19T19:31:04.620Z,1.10
2023-02-19T19:33:37.257Z,1.30
2023-02-19T19:36:11.531Z,0.75
2023-02-19T19:38:44.137Z,0.90
2023-02-19T19:41:20.071Z,0.40
2023-02-19T19:43:52.664Z,0.82
2023-02-19T19:46:25.259Z,0.80
2023-02-19T19:48:57.864Z,0.77
2023-02-19T19:51:35.473Z,0.90
2023-02-19T19:54:08.462Z,0.65
2023-02-19T19:56:47.155Z,1.10
2023-02-19T19:59:19.996Z,1.20
2023-02-19T20:02:01.672Z,1.50
2023-02-19T20:04:34.548Z,1.67
2023-02-19T20:07:07.153Z,1.27
2023-02-19T20:09:39.692Z,2.22
2023-02-19T20:12:12.718Z,2.58
2023-02-19T20:14:46.731Z,2.28
2023-02-19T20:17:19.312Z,2.20
2023-02-19T20:19:51.822Z,1.27
2023-02-19T20:22:24.758Z,1.08
2023-02-19T20:24:57.563Z,0.82
2023-02-19T20:27:30.163Z,2.22
2023-02-19T20:30:03.468Z,1.05
2023-02-19T20:32:36.049Z,1.17
2023-02-19T20:35:08.945Z,1.58
2023-02-19T20:37:41.611Z,2.30
2023-02-19T20:40:18.011Z,1.30
2023-02-19T20:42:50.614Z,1.13
2023-02-19T20:45:23.384Z,1.73
2023-02-19T20:47:56.096Z,1.10
2023-02-19T20:50:28.852Z,1.17
2023-02-19T20:53:01.417Z,0.93
2023-02-19T20:55:34.085Z,1.08
2023-02-19T20:58:09.070Z,1.27
2023-02-19T21:00:41.580Z,1.38
2023-02-19T21:03:14.219Z,1.35
2023-02-19T21:05:47.122Z,1.45
2023-02-19T21:08:19.650Z,1.20
2023-02-19T21:10:52.255Z,1.90
2023-02-19T21:13:24.732Z,1.67
2023-02-19T21:15:57.332Z,2.03
2023-02-19T21:18:30.017Z,1.77
2023-02-19T21:21:02.602Z,2.78
2023-02-19T21:23:35.162Z,2.30
2023-02-19T21:26:08.171Z,2.25
2023-02-19T21:28:40.768Z,2.83
2023-02-19T21:31:13.849Z,2.38
2023-02-19T21:33:46.955Z,3.30
2023-02-19T21:36:19.459Z,3.50
2023-02-19T21:38:52.045Z,3.88
2023-02-19T21:41:28.403Z,3.50
2023-02-19T21:46:33.678Z,3.92
2023-02-19T21:49:06.892Z,3.85
2023-02-19T21:51:42.784Z,3.72
2023-02-19T21:54:21.149Z,3.88
2023-02-19T21:56:54.643Z,4.35
2023-02-19T21:59:27.217Z,3.92
2023-02-19T22:01:59.864Z,4.38
2023-02-19T22:04:32.373Z,4.35
2023-02-19T22:07:04.859Z,5.07
2023-02-19T22:09:38.802Z,5.07
2023-02-19T22:12:11.316Z,4.80
2023-02-19T22:14:44.364Z,5.18
2023-02-19T22:17:17.012Z,4.93
2023-02-19T22:19:49.543Z,4.68
2023-02-19T22:22:22.106Z,4.90
2023-02-19T22:24:54.764Z,4.57
2023-02-19T22:27:29.269Z,5.78
2023-02-19T22:30:01.828Z,4.88
2023-02-19T22:32:34.470Z,5.28
2023-02-19T22:35:07.399Z,5.13
2023-02-19T22:37:39.940Z,4.78
2023-02-19T22:40:12.974Z,5.45
2023-02-19T22:42:45.597Z,4.32
2023-02-19T22:45:18.168Z,5.38
2023-02-19T22:47:55.644Z,6.03
2023-02-19T22:50:28.218Z,4.95
2023-02-19T22:53:00.731Z,4.95
2023-02-19T22:55:33.271Z,5.07
2023-02-19T22:58:05.812Z,4.85
2023-02-19T23:00:38.320Z,5.78
2023-02-19T23:03:10.977Z,5.22
2023-02-19T23:05:43.603Z,5.45
2023-02-19T23:08:16.091Z,5.78
2023-02-19T23:10:49.798Z,5.03
2023-02-19T23:13:22.305Z,5.57
2023-02-19T23:15:54.802Z,5.50
2023-02-19T23:18:27.299Z,5.55
2023-02-19T23:20:59.852Z,4.95
2023-02-19T23:23:32.394Z,4.68
2023-02-19T23:26:04.999Z,4.70
2023-02-19T23:28:40.550Z,5.35
2023-02-19T23:31:14.709Z,4.97
2023-02-19T23:33:47.420Z,5.20
2023-02-19T23:36:21.705Z,4.72
2023-02-19T23:38:54.204Z,4.43
2023-02-19T23:41:26.673Z,4.95
2023-02-19T23:43:59.207Z,4.90
2023-02-19T23:46:33.757Z,4.47
2023-02-19T23:49:06.513Z,4.47
2023-02-19T23:51:39.392Z,5.20
2023-02-19T23:54:12.367Z,4.00
2023-02-19T23:56:44.914Z,4.43
2023-02-19T23:59:17.389Z,4.82
